ADDS METAR Data INFO
IDs: Format: Raw Decoded Include TAF

Data at: 0311 UTC 22 Apr 2018

KPNS 220253Z 10005KT 10SM BKN017 BKN028 OVC034 21/18 A3011 RMK AO2 SLP197 T02110178 53003

KPNS 212320Z 2200/2224 13009KT P6SM FEW040 SCT050
  FM220500 12010KT 6SM BR BKN015
  FM220800 12011KT 6SM BR VCSH BKN008
  FM221800 15014G25KT 6SM BR VCTS OVC015CB
  PROB30 2218/2224 VRB20G30KT 2SM TSRA BKN012CB